Terminal Aerodrome Forecast
Issued by NWS Tuscon, AZ

Home | Current Version | Previous Version | Text Only | Print | Product List | Glossary On
Versions: 1 2 3 4 5 6 7 8 9 10 11 12
000
FTUS45 KTWC 260520
TAFTUS
TAF
KTUS 260520Z 2606/2706 24005KT P6SM FEW250
     FM260900 14006KT P6SM FEW250
     FM261900 28009KT P6SM SCT250=

USA.gov is the U.S. government's official web portal to all federal, state and local government web resources and services.